Time;durP1;ratioP1;P1;durP2;ratioP2;P2;SDS_P1;SDS_P2;PMS_P1;PMS_P2;Temp;Humidity;BMP_temperature;BMP_pressure;BME280_temperature;BME280_humidity;BME280_pressure;Samples;Min_cycle;Max_cycle;Signal;HPM_P1;HPM_P2
2022/03/27 00:00:34;;;;;;;25.50;12.60;;;;;;;2.91;46.41;101931.45;109511;1265;22006;-82
2022/03/27 00:03:42;;;;;;;20.10;11.70;;;;;;;2.80;46.66;101927.48;109475;1265;21984;-82
2022/03/27 00:07:07;;;;;;;;;;;;;;;;;;;;;
2022/03/27 00:09:35;;;;;;;34.70;20.80;;;;;;;2.58;47.24;101934.16;109391;1267;22074;-80
2022/03/27 00:12:14;;;;;;;35.70;21.50;;;;;;;2.51;47.52;101938.88;109370;1267;22393;-80
2022/03/27 00:14:52;;;;;;;37.60;21.80;;;;;;;2.44;47.70;101946.01;109450;1267;21984;-79
2022/03/27 00:17:33;;;;;;;;;;;;;;;;;;;;;
2022/03/27 00:20:20;;;;;;;38.10;21.00;;;;;;;2.26;48.15;101955.20;109242;1267;23096;-80
2022/03/27 00:23:28;;;;;;;36.20;19.00;;;;;;;2.18;48.52;101957.70;109189;1267;23608;-80
2022/03/27 00:26:07;;;;;;;30.90;19.20;;;;;;;2.08;48.67;101951.94;109413;1267;21988;-80
2022/03/27 00:29:12;;;;;;;35.10;19.10;;;;;;;1.99;49.02;101955.30;109802;1261;22345;-81
2022/03/27 00:31:54;;;;;;;35.20;20.40;;;;;;;1.94;49.24;101956.08;109786;1264;21995;-81
2022/03/27 00:34:41;;;;;;;31.80;19.80;;;;;;;1.89;49.44;101958.02;109777;1261;21995;-81
2022/03/27 00:37:44;;;;;;;37.20;21.00;;;;;;;1.82;49.49;101965.12;110065;1262;23770;-80
2022/03/27 00:40:28;;;;;;;37.10;19.80;;;;;;;1.76;49.61;101973.58;110082;1260;21981;-81
2022/03/27 00:43:04;;;;;;;37.00;20.60;;;;;;;1.72;49.76;101975.89;109907;1260;21976;-80
2022/03/27 00:45:48;;;;;;;41.90;22.00;;;;;;;1.66;49.75;101974.92;109650;1260;21983;-79
2022/03/27 00:48:21;;;;;;;40.70;24.40;;;;;;;1.60;49.91;101970.67;109668;1263;21977;-81
2022/03/27 00:51:34;;;;;;;;;;;;;;;;;;;;;
2022/03/27 00:54:35;;;;;;;34.90;20.00;;;;;;;1.43;50.30;101973.72;110297;1258;22984;-82
2022/03/27 00:57:56;;;;;;;;;;;;;;;;;;;;;
2022/03/27 01:01:03;;;;;;;43.80;22.70;;;;;;;1.28;50.58;101972.48;109534;1263;23769;-80
2022/03/27 01:03:48;;;;;;;51.50;25.00;;;;;;;1.21;50.83;101976.95;110021;1261;23813;-80
2022/03/27 01:06:40;;;;;;;49.30;25.80;;;;;;;1.15;50.95;101976.67;109657;1261;21969;-79
2022/03/27 01:09:47;;;;;;;52.90;28.10;;;;;;;1.07;51.13;101977.02;109410;1267;21992;-79
2022/03/27 01:12:43;;;;;;;59.90;31.90;;;;;;;1.01;51.38;101975.21;109126;1267;23093;-79
2022/03/27 01:16:40;;;;;;;56.70;28.90;;;;;;;0.93;51.63;101971.20;109235;1267;23619;-81
2022/03/27 01:20:12;;;;;;;52.20;27.40;;;;;;;0.86;52.05;101967.71;109388;1267;22447;-82
2022/03/27 01:23:01;;;;;;;39.70;25.00;;;;;;;0.81;52.19;101969.47;109188;1267;22002;-81
2022/03/27 01:26:11;;;;;;;;;;;;;;;;;;;;;
2022/03/27 01:29:20;;;;;;;49.30;26.20;;;;;;;0.74;52.53;101970.12;109275;1267;23020;-79
2022/03/27 01:33:05;;;;;;;37.90;23.90;;;;;;;0.67;52.56;101971.60;109128;1267;23758;-81
2022/03/27 01:35:57;;;;;;;44.00;24.70;;;;;;;0.62;52.75;101972.52;109150;1267;21988;-80
2022/03/27 01:39:01;;;;;;;;;;;;;;;;;;;;;
2022/03/27 01:42:04;;;;;;;44.40;27.30;;;;;;;0.53;53.23;101975.84;109181;1270;22001;-80
2022/03/27 01:45:19;;;;;;;40.10;25.60;;;;;;;0.48;53.45;101974.48;108829;1273;22811;-80
2022/03/27 01:48:40;;;;;;;;;;;;;;;;;;;;;
2022/03/27 01:51:54;;;;;;;47.10;26.30;;;;;;;0.47;53.64;101978.54;108923;1273;24158;-82
2022/03/27 01:55:04;;;;;;;;;;;;;;;;;;;;;
2022/03/27 01:58:11;;;;;;;41.90;24.20;;;;;;;0.50;53.89;101983.61;109209;1270;23056;-80
2022/03/27 02:01:10;;;;;;;39.10;23.90;;;;;;;0.52;54.06;101983.89;108971;1273;23037;-82
2022/03/27 02:04:32;;;;;;;36.00;22.00;;;;;;;0.50;54.14;101985.54;109235;1270;21979;-79
2022/03/27 02:11:17;;;;;;;35.00;20.20;;;;;;;0.43;54.50;101983.90;109092;1267;21979;-79
2022/03/27 02:14:01;;;;;;;34.60;22.70;;;;;;;0.40;54.59;101985.41;109151;1270;23712;-80
2022/03/27 02:17:21;;;;;;;45.10;24.10;;;;;;;0.36;54.64;101985.05;108999;1270;21992;-80
2022/03/27 02:20:54;;;;;;;;;;;;;;;;;;;;;
2022/03/27 02:23:37;;;;;;;43.10;24.00;;;;;;;0.31;55.06;101986.81;108762;1274;22098;-80
2022/03/27 02:26:21;;;;;;;36.60;23.90;;;;;;;0.29;54.98;101992.08;108550;1273;22024;-84
2022/03/27 02:29:05;;;;;;;47.40;27.00;;;;;;;0.27;55.03;101993.58;108645;1273;23800;-81
2022/03/27 02:31:47;;;;;;;47.50;22.60;;;;;;;0.24;55.03;101995.57;108909;1271;21981;-80
2022/03/27 02:34:35;;;;;;;38.60;22.20;;;;;;;0.22;55.10;101995.14;109102;1270;21992;-80
2022/03/27 02:37:49;;;;;;;45.70;27.90;;;;;;;0.18;55.17;101998.25;108731;1273;22009;-82
2022/03/27 02:40:45;;;;;;;52.70;31.00;;;;;;;0.13;55.32;101999.48;108673;1273;22007;-81
2022/03/27 02:43:29;;;;;;;50.30;32.30;;;;;;;0.10;55.39;102001.01;108426;1279;23112;-82
2022/03/27 02:46:17;;;;;;;;;;;;;;;;;;;;;
2022/03/27 02:49:21;;;;;;;68.40;39.70;;;;;;;0.10;55.61;102006.88;108559;1276;22188;-82
2022/03/27 02:52:20;;;;;;;;;;;;;;;;;;;;;
2022/03/27 02:55:41;;;;;;;;;;;;;;;;;;;;;
2022/03/27 02:59:42;;;;;;;72.00;40.20;;;;;;;0.14;56.38;102015.71;108676;1279;23703;-81
2022/03/27 03:03:07;;;;;;;;;;;;;;;;;;;;;
2022/03/27 03:06:09;;;;;;;84.10;46.40;;;;;;;0.18;56.86;102023.53;109371;1267;21986;-81
2022/03/27 03:08:56;;;;;;;88.50;48.60;;;;;;;0.17;56.78;102024.95;109440;1266;23768;-82
2022/03/27 03:11:49;;;;;;;83.90;48.10;;;;;;;0.16;56.88;102020.83;109135;1270;22425;-81
2022/03/27 03:14:50;;;;;;;;;;;;;;;;;;;;;
2022/03/27 03:17:38;;;;;;;88.50;46.30;;;;;;;0.10;56.80;102019.86;108994;1270;22405;-81
2022/03/27 03:20:22;;;;;;;85.40;44.60;;;;;;;0.07;56.96;102014.97;109057;1271;23095;-82
2022/03/27 03:23:05;;;;;;;89.10;47.70;;;;;;;0.05;57.02;102017.30;108764;1274;22048;-81
2022/03/27 03:25:56;;;;;;;83.30;44.90;;;;;;;0.04;57.13;102023.05;108724;1274;23778;-80
2022/03/27 03:29:06;;;;;;;93.50;49.00;;;;;;;0.03;57.20;102024.83;109013;1264;21999;-80
2022/03/27 03:31:48;;;;;;;97.30;50.70;;;;;;;0.04;57.27;102020.27;110199;1257;21975;-80
2022/03/27 03:34:21;;;;;;;95.40;51.60;;;;;;;0.06;57.33;102023.13;110299;1256;22735;-78
2022/03/27 03:37:04;;;;;;;101.30;53.50;;;;;;;0.07;57.42;102021.02;110538;1257;21968;-79
2022/03/27 03:39:42;;;;;;;91.30;50.30;;;;;;;0.06;57.46;102021.26;110545;1257;23810;-79
2022/03/27 03:42:16;;;;;;;88.60;52.00;;;;;;;0.03;57.45;102022.91;110215;1257;22054;-79
2022/03/27 03:44:48;;;;;;;;;;;;;;;-0.01;57.49;102024.44;110355;1257;22027;-79
2022/03/27 03:47:24;;;;;;;90.30;52.20;;;;;;;-0.10;57.71;102024.79;110714;1256;21983;-79
2022/03/27 03:50:29;;;;;;;85.30;50.60;;;;;;;-0.18;57.78;102027.33;110701;1256;21985;-80
2022/03/27 03:53:19;;;;;;;98.00;54.10;;;;;;;-0.21;57.95;102028.16;110532;1257;21963;-81
2022/03/27 03:56:05;;;;;;;92.90;52.80;;;;;;;-0.25;58.11;102030.00;110530;1257;21982;-79
2022/03/27 03:59:00;;;;;;;94.70;50.50;;;;;;;-0.26;58.20;102026.62;110622;1255;21975;-82
2022/03/27 04:02:09;;;;;;;88.90;52.30;;;;;;;-0.28;58.27;102026.51;110368;1257;22200;-81
2022/03/27 04:05:02;;;;;;;;;;;;;;;;;;;;;
2022/03/27 04:08:19;;;;;;;97.20;56.60;;;;;;;-0.25;58.46;102028.11;110079;1260;21987;-79
2022/03/27 04:11:22;;;;;;;104.40;58.70;;;;;;;-0.23;58.58;102032.71;109402;1267;23638;-79
2022/03/27 04:14:07;;;;;;;100.30;56.30;;;;;;;-0.20;58.65;102035.55;109427;1267;22436;-80
2022/03/27 04:16:48;;;;;;;103.00;60.80;;;;;;;-0.15;58.71;102035.88;109368;1267;22101;-80
2022/03/27 04:19:36;;;;;;;130.70;68.60;;;;;;;-0.14;58.51;102036.70;109664;1260;21979;-79
2022/03/27 04:22:12;;;;;;;115.70;66.20;;;;;;;-0.17;58.42;102037.86;110265;1254;23685;-79
2022/03/27 04:25:07;;;;;;;106.20;60.50;;;;;;;-0.18;58.61;102040.86;110583;1257;21986;-80
2022/03/27 04:27:45;;;;;;;;;;;;;;;-0.18;58.77;102047.95;110624;1254;22291;-80
2022/03/27 04:30:43;;;;;;;86.70;50.60;;;;;;;-0.25;58.72;102055.31;110439;1256;22288;-80
2022/03/27 04:33:36;;;;;;;84.40;50.20;;;;;;;-0.29;58.76;102061.35;109918;1260;22056;-80
2022/03/27 04:37:00;;;;;;;;;;;;;;;;;;;;;
2022/03/27 04:40:04;;;;;;;78.30;48.00;;;;;;;-0.32;58.86;102062.99;109288;1267;21997;-75
2022/03/27 04:46:09;;;;;;;;;;;;;;;;;;;;;
2022/03/27 04:50:10;;;;;;;80.20;48.60;;;;;;;-0.33;58.79;102076.55;108686;1276;22154;-79
2022/03/27 04:53:54;;;;;;;;;;;;;;;;;;;;;
2022/03/27 04:56:53;;;;;;;;;;;;;;;;;;;;;
2022/03/27 05:00:21;;;;;;;;;;;;;;;;;;;;;
2022/03/27 05:03:20;;;;;;;71.90;44.00;;;;;;;0.01;59.55;102072.20;107834;1286;22078;-81
2022/03/27 05:06:36;;;;;;;73.90;45.80;;;;;;;0.11;59.45;102071.45;107543;1291;22023;-81
2022/03/27 05:09:49;;;;;;;;;;;;;;;;;;;;;
2022/03/27 05:12:56;;;;;;;75.20;43.00;;;;;;;0.26;59.47;102077.11;107818;1288;22430;-80
2022/03/27 05:15:50;;;;;;;77.20;47.90;;;;;;;0.35;59.73;102078.16;108192;1279;22103;-81
2022/03/27 05:18:59;;;;;;;80.30;49.40;;;;;;;0.48;59.83;102080.59;108499;1276;23596;-81
2022/03/27 05:22:13;;;;;;;80.10;50.70;;;;;;;0.58;59.51;102081.41;108296;1281;22011;-80
2022/03/27 05:25:22;;;;;;;82.10;52.80;;;;;;;0.62;59.21;102080.91;109699;1260;22212;-80
2022/03/27 05:28:35;;;;;;;;;;;;;;;;;;;;;
2022/03/27 05:36:20;;;;;;;;;;;;;;;;;;;;;
2022/03/27 05:39:14;;;;;;;85.10;54.90;;;;;;;1.02;59.35;102099.56;109014;1267;21976;-80
2022/03/27 05:42:47;;;;;;;;;;;;;;;;;;;;;
2022/03/27 05:46:28;;;;;;;90.80;50.10;;;;;;;1.27;58.47;102101.83;109201;1267;21986;-81
2022/03/27 05:50:29;;;;;;;89.60;55.60;;;;;;;1.43;58.69;102103.23;109101;1267;23177;-80
2022/03/27 05:57:26;;;;;;;;;;;;;;;;;;;;;
2022/03/27 06:01:19;;;;;;;81.80;52.00;;;;;;;1.98;57.79;102104.09;108897;1273;21994;-80
2022/03/27 06:04:57;;;;;;;84.00;56.50;;;;;;;2.11;57.47;102105.23;108917;1273;22092;-80
2022/03/27 06:08:21;;;;;;;84.90;57.50;;;;;;;2.16;56.93;102106.23;108647;1273;23659;-80
2022/03/27 06:11:45;;;;;;;77.80;52.20;;;;;;;2.26;57.16;102109.41;108720;1273;21988;-82
2022/03/27 06:14:23;;;;;;;82.90;53.40;;;;;;;2.37;57.09;102104.89;108711;1273;22003;-80
2022/03/27 06:17:09;;;;;;;69.90;50.70;;;;;;;2.55;57.17;102109.45;108629;1273;21990;-78
2022/03/27 06:20:03;;;;;;;75.00;53.00;;;;;;;2.62;56.41;102110.14;108679;1273;22090;-80
2022/03/27 06:22:48;;;;;;;70.90;51.70;;;;;;;2.63;55.94;102105.77;108521;1273;22142;-77
2022/03/27 06:25:36;;;;;;;76.70;54.90;;;;;;;2.70;55.96;102109.42;108806;1270;24418;-78
2022/03/27 06:28:13;;;;;;;81.10;55.00;;;;;;;2.87;56.29;102118.36;108559;1273;23737;-78
2022/03/27 06:31:12;;;;;;;76.60;51.00;;;;;;;3.16;56.71;102125.60;108689;1273;21988;-79
2022/03/27 06:33:50;;;;;;;76.50;53.30;;;;;;;3.53;56.45;102130.71;108633;1273;21984;-78
2022/03/27 06:36:26;;;;;;;69.50;49.50;;;;;;;3.86;56.26;102137.36;109902;1262;22037;-78
2022/03/27 06:39:06;;;;;;;62.50;44.00;;;;;;;4.31;56.51;102140.88;109355;1264;22844;-79
2022/03/27 06:42:03;;;;;;;61.10;41.20;;;;;;;5.05;57.26;102143.52;109581;1263;23652;-79
2022/03/27 06:44:34;;;;;;;64.80;42.00;;;;;;;5.75;56.89;102150.65;109575;1263;21977;-79
2022/03/27 06:47:22;;;;;;;61.70;46.30;;;;;;;6.45;55.18;102154.21;110274;1257;21960;-79
2022/03/27 06:50:02;;;;;;;55.10;42.30;;;;;;;6.93;52.65;102161.96;110399;1254;21972;-78
2022/03/27 06:52:42;;;;;;;52.80;37.80;;;;;;;7.38;51.53;102167.23;110606;1250;23596;-78
2022/03/27 06:55:22;;;;;;;37.50;27.20;;;;;;;7.89;50.20;102173.64;110588;1250;21954;-79
2022/03/27 06:58:05;;;;;;;45.10;30.00;;;;;;;8.43;49.08;102175.83;110947;1251;21984;-78
2022/03/27 07:03:45;;;;;;;39.90;30.00;;;;;;;9.32;46.00;102187.61;110731;1251;21976;-79
2022/03/27 07:06:25;;;;;;;;;;;;;;;9.61;44.80;102190.86;110304;1254;21955;-78
2022/03/27 07:09:18;;;;;;;;;;;;;;;;;;;;;
2022/03/27 07:12:13;;;;;;;41.40;29.10;;;;;;;10.15;42.62;102197.65;110020;1260;23073;-80
2022/03/27 07:15:13;;;;;;;;;;;;;;;;;;;;;
2022/03/27 07:17:59;;;;;;;44.20;29.40;;;;;;;10.55;42.43;102202.45;110235;1260;22805;-78
2022/03/27 07:20:37;;;;;;;35.00;27.20;;;;;;;10.97;41.90;102201.50;110181;1260;21970;-79
2022/03/27 07:23:37;;;;;;;30.20;20.40;;;;;;;11.36;41.05;102196.73;109329;1265;21979;-78
2022/03/27 07:26:30;;;;;;;29.90;20.40;;;;;;;11.51;39.20;102198.43;110038;1260;21973;-78
2022/03/27 07:29:08;;;;;;;25.10;16.30;;;;;;;11.64;39.16;102206.55;109806;1260;23717;-78
2022/03/27 07:31:55;;;;;;;20.70;13.30;;;;;;;11.95;38.50;102206.05;110368;1254;21999;-79
2022/03/27 07:34:45;;;;;;;26.10;16.90;;;;;;;11.92;37.27;102200.48;110282;1254;23326;-79
2022/03/27 07:37:45;;;;;;;28.20;18.90;;;;;;;12.10;37.26;102202.48;110498;1256;21977;-80
2022/03/27 07:40:38;;;;;;;24.00;17.70;;;;;;;12.32;37.20;102199.98;110295;1253;21964;-79
2022/03/27 07:43:09;;;;;;;38.40;25.70;;;;;;;12.65;37.28;102197.11;110798;1251;21958;-80
2022/03/27 07:45:41;;;;;;;39.60;28.60;;;;;;;12.97;36.02;102200.97;110593;1254;23067;-77
2022/03/27 07:49:00;;;;;;;35.40;24.00;;;;;;;13.07;35.09;102203.23;110765;1256;23692;-79
2022/03/27 07:52:42;;;;;;;52.70;35.90;;;;;;;12.90;33.54;102199.25;110550;1254;21989;-80
2022/03/27 07:56:20;;;;;;;55.30;37.30;;;;;;;13.02;34.22;102192.59;110281;1254;21994;-79
2022/03/27 08:00:14;;;;;;;61.60;42.30;;;;;;;13.07;33.93;102183.27;110819;1253;22115;-82
2022/03/27 08:03:37;;;;;;;;;;;;;;;;;;;;;
2022/03/27 08:06:50;;;;;;;;;;;;;;;;;;;;;
2022/03/27 08:14:43;;;;;;;167.00;95.50;;;;;;;13.04;31.89;102172.59;109857;1261;22072;-79
2022/03/27 08:18:36;;;;;;;34.70;22.20;;;;;;;13.48;31.61;102171.52;110037;1262;21972;-80
2022/03/27 08:21:47;;;;;;;37.90;21.90;;;;;;;13.69;30.20;102174.41;110217;1256;22679;-77
2022/03/27 08:25:12;;;;;;;28.20;18.10;;;;;;;13.96;31.29;102176.77;109249;1263;23712;-78
2022/03/27 08:29:03;;;;;;;30.80;15.80;;;;;;;14.49;29.98;102171.40;109081;1270;23861;-80
2022/03/27 08:32:38;;;;;;;;;;;;;;;;;;;;;
2022/03/27 08:36:37;;;;;;;;;;;;;;;;;;;;;
2022/03/27 08:39:39;;;;;;;42.70;27.90;;;;;;;15.27;26.86;102173.24;108709;1271;22398;-80
2022/03/27 08:42:56;;;;;;;42.70;24.70;;;;;;;15.29;27.07;102169.52;108430;1273;22929;-79
2022/03/27 08:46:27;;;;;;;42.70;24.70;;;;;;;15.81;27.79;102169.19;104579;1267;5816284;-80
2022/03/27 08:50:23;;;;;;;;;;;;;;;;;;;;;
2022/03/27 08:54:17;;;;;;;;;;;;;;;;;;;;;
2022/03/27 08:57:51;;;;;;;10.70;6.60;;;;;;;17.22;21.50;102157.81;108578;1276;23716;-78
2022/03/27 09:00:49;;;;;;;;;;;;;;;;;;;;;
2022/03/27 09:04:19;;;;;;;9.10;5.40;;;;;;;17.38;23.07;102157.04;107811;1285;23724;-79
2022/03/27 09:07:09;;;;;;;8.50;6.60;;;;;;;17.51;22.34;102157.83;107884;1285;22030;-78
2022/03/27 09:10:11;;;;;;;13.10;6.00;;;;;;;17.38;22.15;102150.89;107909;1285;22016;-79
2022/03/27 09:13:15;;;;;;;11.20;6.90;;;;;;;17.54;22.63;102147.44;108142;1276;22068;-79
2022/03/27 09:16:59;;;;;;;;;;;;;;;;;;;;;
2022/03/27 09:20:56;;;;;;;11.50;6.20;;;;;;;17.46;21.49;102141.16;108170;1282;22005;-79
2022/03/27 09:24:18;;;;;;;;;;;;;;;;;;;;;
2022/03/27 09:28:16;;;;;;;9.90;4.80;;;;;;;18.32;21.84;102140.79;108435;1276;23713;-79
2022/03/27 09:31:47;;;;;;;7.20;4.30;;;;;;;18.50;20.50;102139.23;108579;1276;23081;-78
2022/03/27 09:35:33;;;;;;;10.70;4.90;;;;;;;18.55;20.61;102132.74;108943;1268;23136;-79
2022/03/27 09:39:15;;;;;;;9.00;5.10;;;;;;;18.55;20.00;102120.66;108351;1276;22195;-77
2022/03/27 09:42:26;;;;;;;;;;;;;;;;;;;;;
2022/03/27 09:45:27;;;;;;;9.10;6.90;;;;;;;17.86;20.62;102110.48;108271;1280;22794;-79
2022/03/27 09:48:28;;;;;;;9.20;7.40;;;;;;;18.12;20.40;102109.90;107896;1285;23044;-78
2022/03/27 09:51:37;;;;;;;;;;;;;;;;;;;;;
2022/03/27 09:54:58;;;;;;;9.40;4.90;;;;;;;18.14;19.57;102101.28;107914;1279;22090;-79
2022/03/27 09:58:12;;;;;;;;;;;;;;;18.61;19.65;102096.43;108470;1276;22316;-79
2022/03/27 10:01:57;;;;;;;15.00;8.80;;;;;;;19.16;19.45;102090.56;108381;1280;22014;-76
2022/03/27 10:05:29;;;;;;;16.30;11.90;;;;;;;19.92;18.41;102090.14;108051;1282;22359;-78
2022/03/27 10:08:59;;;;;;;;;;;;;;;;;;;;;
2022/03/27 10:12:38;;;;;;;7.60;3.20;;;;;;;21.35;17.62;102094.17;108149;1279;22057;-77
2022/03/27 10:16:04;;;;;;;;;;;;;;;;;;;;;
2022/03/27 10:19:43;;;;;;;9.10;3.90;;;;;;;22.54;16.24;102091.69;108248;1279;22078;-79
2022/03/27 10:23:24;;;;;;;7.40;3.00;;;;;;;23.21;15.85;102086.04;108540;1279;22015;-79
2022/03/27 10:26:58;;;;;;;8.40;4.60;;;;;;;23.91;15.54;102079.32;108473;1274;22459;-82
2022/03/27 10:30:18;;;;;;;7.40;3.00;;;;;;;24.98;15.14;102070.42;108875;1267;24310;-82
2022/03/27 10:34:01;;;;;;;;;;;;;;;;;;;;;
2022/03/27 10:37:15;;;;;;;4.60;3.30;;;;;;;26.17;14.15;102063.19;109708;1260;21978;-83
2022/03/27 10:41:33;;;;;;;7.80;3.40;;;;;;;26.69;13.41;102064.61;110168;1259;22748;-84
2022/03/27 10:45:20;;;;;;;8.00;3.90;;;;;;;27.29;12.50;102055.02;109967;1262;22088;-85
2022/03/27 10:48:24;;;;;;;7.60;3.50;;;;;;;26.95;11.26;102044.46;108964;1271;21989;-83
2022/03/27 10:51:48;;;;;;;5.50;3.10;;;;;;;26.36;12.10;102031.92;109119;1270;21979;-83
2022/03/27 10:55:36;;;;;;;5.70;4.50;;;;;;;26.74;12.26;102028.40;109172;1270;22987;-81
2022/03/27 10:59:16;;;;;;;;;;;;;;;;;;;;;
2022/03/27 11:03:05;;;;;;;5.00;2.50;;;;;;;26.44;11.64;102021.07;109296;1268;21948;-84
2022/03/27 11:07:05;;;;;;;3.50;2.40;;;;;;;24.41;11.54;102013.36;109584;1260;21982;-85
2022/03/27 11:11:03;;;;;;;4.40;3.20;;;;;;;22.19;12.92;102004.52;109697;1267;22024;-83
2022/03/27 11:14:12;;;;;;;;;;;;;;;;;;;;;
2022/03/27 11:17:16;;;;;;;5.70;2.50;;;;;;;19.85;14.49;101986.52;109710;1265;24922;-83
2022/03/27 11:19:57;;;;;;;7.90;3.60;;;;;;;19.09;14.88;101981.66;109704;1260;22992;-82
2022/03/27 11:22:58;;;;;;;5.60;3.10;;;;;;;18.33;15.43;101975.73;110206;1258;23053;-82
2022/03/27 11:25:48;;;;;;;10.10;2.70;;;;;;;17.74;16.01;101975.77;109542;1264;21985;-84
2022/03/27 11:29:06;;;;;;;7.10;2.60;;;;;;;17.14;16.33;101969.84;109598;1261;23495;-79
2022/03/27 11:32:25;;;;;;;5.50;3.90;;;;;;;16.26;16.81;101958.51;110440;1257;24292;-83
2022/03/27 11:40:51;;;;;;;;;;;;;;;15.59;18.22;101941.36;109407;1268;23769;-82
2022/03/27 11:44:28;;;;;;;;;;;;;;;;;;;;;
2022/03/27 11:47:47;;;;;;;;;;;;;;;;;;;;;
2022/03/27 11:51:10;;;;;;;4.30;2.60;;;;;;;14.62;19.03;101928.66;108968;1276;22011;-82
2022/03/27 11:54:57;;;;;;;6.60;3.70;;;;;;;14.70;19.44;101916.61;108980;1276;22463;-81
2022/03/27 11:58:10;;;;;;;;;;;;;;;;;;;;;
2022/03/27 12:01:40;;;;;;;3.60;2.40;;;;;;;14.44;19.32;101905.60;108314;1279;22005;-82
2022/03/27 12:08:48;;;;;;;4.60;1.90;;;;;;;14.33;19.28;101901.61;107795;1288;22006;-77
2022/03/27 12:11:39;;;;;;;5.80;2.50;;;;;;;14.09;19.63;101896.05;107785;1285;21997;-80
2022/03/27 12:15:13;;;;;;;5.10;2.70;;;;;;;13.95;19.77;101893.66;107964;1279;22005;-79
2022/03/27 12:18:47;;;;;;;7.20;3.30;;;;;;;13.85;20.07;101892.02;108940;1270;22017;-79
2022/03/27 12:21:22;;;;;;;3.60;2.50;;;;;;;13.81;20.09;101885.67;109348;1270;22010;-79
2022/03/27 12:24:33;;;;;;;4.50;3.10;;;;;;;13.57;20.23;101888.21;109980;1257;21959;-79
2022/03/27 12:31:05;;;;;;;5.90;2.50;;;;;;;13.52;20.59;101884.80;111094;1254;21984;-79
2022/03/27 12:35:01;;;;;;;9.80;3.30;;;;;;;13.50;20.82;101882.14;110426;1259;22746;-79
2022/03/27 12:38:00;;;;;;;4.80;2.30;;;;;;;13.56;20.73;101880.67;109649;1263;22457;-81
2022/03/27 12:40:51;;;;;;;4.10;2.40;;;;;;;13.54;20.60;101869.70;109612;1263;22404;-79
2022/03/27 12:43:59;;;;;;;6.80;6.10;;;;;;;13.56;20.57;101870.44;108902;1269;22826;-78
2022/03/27 12:46:58;;;;;;;26.30;20.10;;;;;;;13.55;20.75;101859.59;109177;1267;21994;-79
2022/03/27 12:49:50;;;;;;;5.10;3.80;;;;;;;13.57;20.77;101855.66;109773;1263;22464;-78
2022/03/27 12:52:28;;;;;;;9.30;5.00;;;;;;;13.53;20.67;101850.73;109351;1264;22939;-80
2022/03/27 12:55:31;;;;;;;;;;;;;;;;;;;;;
2022/03/27 12:58:16;;;;;;;8.40;2.70;;;;;;;13.41;20.86;101843.08;109542;1264;21987;-79
2022/03/27 13:01:45;;;;;;;4.70;2.80;;;;;;;13.35;21.02;101837.42;109634;1264;22456;-79
2022/03/27 13:05:03;;;;;;;4.50;2.90;;;;;;;13.28;21.09;101829.13;109221;1265;22295;-79
2022/03/27 13:07:57;;;;;;;5.30;2.80;;;;;;;13.23;21.23;101832.55;108676;1273;23044;-78
2022/03/27 13:10:39;;;;;;;3.50;2.30;;;;;;;13.29;21.40;101836.84;109318;1261;21976;-78
2022/03/27 13:13:41;;;;;;;;;;;;;;;;;;;;;
2022/03/27 13:17:03;;;;;;;;;;;;;;;;;;;;;
2022/03/27 13:24:48;;;;;;;5.70;2.00;;;;;;;13.23;21.30;101824.85;110684;1251;21968;-78
2022/03/27 13:28:18;;;;;;;5.90;2.50;;;;;;;13.21;21.33;101822.64;110985;1256;21974;-80
2022/03/27 13:31:15;;;;;;;4.40;2.50;;;;;;;13.24;21.49;101813.23;110655;1256;23605;-82
2022/03/27 13:33:57;;;;;;;6.90;2.00;;;;;;;13.28;21.42;101812.31;110784;1256;22160;-83
2022/03/27 13:36:59;;;;;;;4.40;2.70;;;;;;;13.29;21.26;101807.45;110658;1256;23035;-78
2022/03/27 13:39:43;;;;;;;4.60;2.90;;;;;;;13.28;21.39;101805.42;110858;1256;23605;-79
2022/03/27 13:45:07;;;;;;;5.10;2.60;;;;;;;13.32;21.49;101794.70;110085;1253;21986;-78
2022/03/27 13:47:52;;;;;;;5.60;2.70;;;;;;;13.31;21.49;101795.56;110626;1253;22046;-78
2022/03/27 13:50:24;;;;;;;4.60;2.80;;;;;;;13.34;21.61;101795.59;110678;1254;22071;-78
2022/03/27 13:52:57;;;;;;;7.80;2.60;;;;;;;13.39;21.67;101793.66;110031;1256;22092;-77
2022/03/27 13:55:28;;;;;;;4.10;2.40;;;;;;;13.45;21.71;101788.66;110511;1256;21970;-78
2022/03/27 13:57:56;;;;;;;5.60;2.20;;;;;;;13.48;21.57;101787.20;110076;1260;21986;-76
2022/03/27 14:00:34;;;;;;;4.30;2.90;;;;;;;13.41;21.32;101783.11;109825;1260;21980;-77
2022/03/27 14:03:11;;;;;;;6.10;3.60;;;;;;;13.35;21.65;101785.29;109482;1261;22024;-77
2022/03/27 14:06:18;;;;;;;4.50;2.70;;;;;;;13.47;22.05;101777.90;110202;1260;22057;-81
2022/03/27 14:09:01;;;;;;;6.40;1.90;;;;;;;13.55;21.75;101772.27;110021;1262;23069;-79
2022/03/27 14:12:05;;;;;;;;;;;;;;;;;;;;;
2022/03/27 14:15:42;;;;;;;8.90;6.00;;;;;;;13.51;21.82;101769.38;109682;1258;21986;-80
2022/03/27 14:18:39;;;;;;;5.50;2.40;;;;;;;13.56;21.99;101763.88;109851;1261;22007;-80
2022/03/27 14:21:55;;;;;;;7.30;2.00;;;;;;;13.58;21.65;101755.73;110613;1254;21990;-80
2022/03/27 14:25:10;;;;;;;7.50;3.50;;;;;;;13.59;21.43;101750.69;109916;1260;21979;-81
2022/03/27 14:29:03;;;;;;;5.80;2.90;;;;;;;13.55;21.22;101743.45;110312;1259;21977;-80
2022/03/27 14:32:37;;;;;;;4.40;2.40;;;;;;;13.46;21.35;101738.73;109352;1266;22400;-80
2022/03/27 14:36:07;;;;;;;5.70;2.50;;;;;;;13.45;21.33;101741.98;108913;1274;23745;-80
2022/03/27 14:39:46;;;;;;;4.70;2.60;;;;;;;13.44;21.35;101733.57;108453;1276;21994;-80
2022/03/27 14:43:10;;;;;;;4.90;2.50;;;;;;;13.42;21.33;101727.18;108761;1275;23066;-78
2022/03/27 14:46:30;;;;;;;;;;;;;;;;;;;;;
2022/03/27 14:49:51;;;;;;;4.00;2.30;;;;;;;13.51;21.49;101714.45;108488;1273;22002;-80
2022/03/27 14:53:33;;;;;;;4.50;1.80;;;;;;;13.50;21.41;101707.14;109176;1266;22019;-78
2022/03/27 14:56:54;;;;;;;;;;;;;;;;;;;;;
2022/03/27 14:59:56;;;;;;;10.30;2.90;;;;;;;13.47;21.51;101697.55;109308;1256;22457;-79
2022/03/27 15:03:08;;;;;;;;;;;;;;;;;;;;;
2022/03/27 15:06:26;;;;;;;7.30;4.10;;;;;;;13.44;21.54;101686.20;109676;1260;23433;-78
2022/03/27 15:09:24;;;;;;;7.00;3.70;;;;;;;13.44;21.55;101683.64;109930;1259;21979;-80
2022/03/27 15:12:20;;;;;;;6.00;2.60;;;;;;;13.39;21.44;101681.84;109978;1260;21987;-78
2022/03/27 15:15:17;;;;;;;4.80;2.40;;;;;;;13.34;21.44;101676.69;109874;1260;21992;-77
2022/03/27 15:18:38;;;;;;;5.50;2.60;;;;;;;13.32;21.56;101673.78;109607;1260;21982;-78
2022/03/27 15:21:34;;;;;;;4.80;3.00;;;;;;;13.30;21.68;101668.47;110107;1256;23360;-79
2022/03/27 15:24:41;;;;;;;4.90;1.70;;;;;;;13.27;21.72;101664.35;110736;1252;23570;-78
2022/03/27 15:27:41;;;;;;;4.20;2.50;;;;;;;13.20;21.70;101659.29;110847;1250;21969;-78
2022/03/27 15:30:36;;;;;;;4.40;2.80;;;;;;;13.17;21.74;101661.39;110662;1251;23002;-77
2022/03/27 15:33:53;;;;;;;5.40;3.40;;;;;;;13.15;21.90;101652.86;110559;1251;22056;-79
2022/03/27 15:37:06;;;;;;;;;;;;;;;;;;;;;
2022/03/27 15:39:47;;;;;;;10.30;6.30;;;;;;;13.15;21.89;101644.00;111173;1250;23057;-79
2022/03/27 15:42:45;;;;;;;19.60;4.20;;;;;;;13.16;21.94;101639.46;111168;1250;22737;-79
2022/03/27 15:45:34;;;;;;;;;;;;;;;;;;;;;
2022/03/27 15:48:05;;;;;;;9.10;4.00;;;;;;;13.09;21.86;101625.34;110667;1253;23020;-77
2022/03/27 15:51:10;;;;;;;8.10;3.20;;;;;;;13.09;21.90;101620.63;110820;1250;21978;-79
2022/03/27 15:55:08;;;;;;;7.40;3.30;;;;;;;13.06;21.95;101612.64;110629;1250;21961;-79
2022/03/27 15:58:14;;;;;;;5.70;3.30;;;;;;;13.05;22.06;101614.52;111309;1250;22532;-78
2022/03/27 16:01:04;;;;;;;6.10;2.60;;;;;;;13.07;22.03;101618.91;110795;1250;22146;-79
2022/03/27 16:04:06;;;;;;;5.70;3.60;;;;;;;13.08;21.98;101614.91;110576;1256;21973;-81
2022/03/27 16:06:41;;;;;;;7.10;4.20;;;;;;;13.09;22.10;101613.15;109997;1257;23737;-78
2022/03/27 16:09:40;;;;;;;10.80;4.90;;;;;;;13.07;22.27;101609.80;110172;1259;22092;-78
2022/03/27 16:12:42;;;;;;;9.20;5.00;;;;;;;13.05;22.41;101609.89;109866;1259;21997;-80
2022/03/27 16:15:21;;;;;;;8.80;5.80;;;;;;;13.01;22.54;101600.86;109961;1261;22198;-78
2022/03/27 16:18:04;;;;;;;8.20;6.40;;;;;;;12.99;22.61;101596.88;109755;1260;24567;-78
2022/03/27 16:20:44;;;;;;;8.50;4.30;;;;;;;12.96;22.57;101593.08;109732;1261;21943;-79
2022/03/27 16:23:43;;;;;;;5.90;4.30;;;;;;;12.88;22.54;101588.74;109611;1260;22033;-78